Three Rivers, TX (78071)

9:27 AM CDT on July 04, 2015 (GMT -0500)
Sunset Villas | | Change Station
CLOSE
Current Station
Personal Weather Station
Location: Mathis, TX
Elevation: 120 ft
Nearby Weather Stations

Elev 120 ft 28.20 °N, 97.90 °W | Updated 5 seconds ago

Partly Cloudy
Partly Cloudy
83.5 °F
Feels Like 101 °F
N
4.2
Wind Variable Wind from SSW
Gusts 8.1 mph

Today
High -- | Low -- °F
--% Chance of Precip.
Yesterday
High -- | Low -- °F
Precip. -- in
6:40 AM 8:33 PM
Waning Gibbous, 92% visible
Pressure 29.99 in
Visibility 10.0 miles
Clouds Scattered Clouds 1100 ft
Scattered Clouds 1700 ft
Heat Index 101 °F
Dew Point 84 °F
Humidity 100%
Rainfall 0.00 in
Snow Depth Not available.
UV 3 out of 12
Pollen 4.10 out of 12
Air Quality Not available.
Flu Activity Not available.
METAR KBEA 041415Z AUTO 16010KT 10SM SCT011 SCT017 28/27 A2999 RMK AO2 T02760274

More Conditions Fewer Conditions

Pressure 29.99 in
Visibility 10.0 miles
Clouds Scattered Clouds 1100 ft
Scattered Clouds 1700 ft
Heat Index 101 °F
Dew Point 84 °F
Humidity 100%
Rainfall 0.00 in
Snow Depth Not available.
UV 3 out of 12
Pollen 4.10 out of 12
Air Quality Not available.
Flu Activity Not available.
METAR KBEA 041415Z AUTO 16010KT 10SM SCT011 SCT017 28/27 A2999 RMK AO2 T02760274

More Conditions Fewer Conditions

Nowcast | as of 8:07 am CDT on July 4, 2015

Through 10 am CDT...light rain and isolated showers will continue to affect portions of the coastal plains and the middle Texas coastal waters. Rainfall amounts should generally range from a trace to a few hundredths of an inch...with most locations remaining dry.

×

10-Day Weather Forecast

×

Almanac

Astronomy

Jul. 04, 2015 Rise Set
Actual Time
Civil Twilight
Nautical Twilight
Astronomical Twilight
Moon
Length of Visible Light
Length of Day
Tomorrow will be .
, % of the Moon is Illuminated

Today's Extremes

State Highs State Lows

Community

WunderPhotos

Upload Photos

1,834,978 photos uploaded!

WunderBlogs® & News

Nearby

Air Quality

  Air Quality AQ Index Pollutant
Not available.

Snow Depth

Station Depth Elevation

Earthquake Activity

City Distance Mag. Time & Date
Minimum magnitude displayed is 2.5.

Coastal Water Temperatures

Place Temperature

Stations

Nearby Weather Stations

Station Location Temp. Windchill Dew Point Humidity Wind Precip. Elev Updated Type